DW8626 Madrid ES current weather conditions

sailwx.info

Wind from 276

Air temperature -0.6° C
Dewpoint -6.3° C

Last reported at 2018-Feb-22 05:59 UTC.
Time now 2018-Feb-22 06:43 UTC

Location: N 40°29' W 003°43'.
View on Google Maps.

See reports from other nearby stations

  
Tides and Currents Weather Stations Pressure Air Temp Water Temp Dewpoint Dewpoint Depression Visibility Wind Speed Wind Dir Waves Ship Positions
date/time (UTC)wind fromknots sea level pressurealtimeterstation pressurevisibilityair tempwater tempwave heightnotes
2018-Feb-22 05:59 276 -0.6
2018-Feb-22 05:29 274 -1.1
2018-Feb-22 04:59 274 -0.6
2018-Feb-22 04:29 274 -0.0
2018-Feb-22 03:59 274 -0.6
2018-Feb-22 03:28 145 -0.0
2018-Feb-22 02:58 155 0.6
2018-Feb-22 02:28 058 1.1
2018-Feb-22 01:58 132 1.1
2018-Feb-22 01:29 102 1.7
2018-Feb-22 00:58 044 1.7
2018-Feb-22 00:28 044 2.2
2018-Feb-21 23:59 344 2.2
2018-Feb-21 23:29 065 2.8
2018-Feb-21 22:59 032 1 gusting 6 3.3
2018-Feb-21 22:29 046 0 gusting 9 3.9
2018-Feb-21 21:59 039 3.9
2018-Feb-21 21:28 042 3.9
2018-Feb-21 20:58 039 1 gusting 7 4.4
2018-Feb-21 20:29 058 1 gusting 10 5.0
2018-Feb-21 19:58 049 3 gusting 9 5.0
2018-Feb-21 19:28 058 5 gusting 13 5.6
2018-Feb-21 18:59 021 4 gusting 10 6.1
2018-Feb-21 18:29 019 0 gusting 5 6.7
2018-Feb-21 17:59 345 7.8
2018-Feb-21 17:29 001 6 gusting 20 8.3
2018-Feb-21 16:59 342 6 gusting 24 8.9
2018-Feb-21 16:29 018 10 gusting 22 8.9
2018-Feb-21 15:59 012 8 gusting 20 9.4
2018-Feb-21 15:28 357 12 gusting 21 8.9
2018-Feb-21 14:58 001 6 gusting 19 9.4
2018-Feb-21 14:28 060 7 gusting 17 9.4
2018-Feb-21 13:58 012 11 gusting 23 9.4
2018-Feb-21 13:28 018 7 gusting 18 9.4
2018-Feb-21 12:58 355 11 gusting 20 8.9
2018-Feb-21 12:28 016 10 gusting 19 9.4
2018-Feb-21 11:59 032 8 gusting 16 8.9
2018-Feb-21 11:29 319 9 gusting 19 8.3
2018-Feb-21 10:59 019 10 gusting 20 8.3
2018-Feb-21 10:29 005 9 gusting 21 7.8
2018-Feb-21 09:59 338 9 gusting 21 7.2
2018-Feb-21 09:28 015 9 gusting 18 7.2
2018-Feb-21 08:58 018 3 gusting 13 7.2
2018-Feb-21 08:28 013 6 gusting 23 6.7
2018-Feb-21 07:59 348 6 gusting 24 6.7
2018-Feb-21 07:28 022 17 gusting 22 6.7
2018-Feb-21 06:59 026 6 gusting 13 6.7
2018-Feb-21 06:29 030 5 gusting 12 7.2
2018-Feb-21 05:59 022 6 gusting 13 7.2
2018-Feb-21 05:29 329 7.2
2018-Feb-21 04:59 018 0 gusting 8 7.2
2018-Feb-21 04:29 023 1 gusting 6 7.2
2018-Feb-21 03:59 111 6.7
2018-Feb-21 03:28 091 6.7
2018-Feb-21 02:58 019 6.7
2018-Feb-21 02:28 081 6.7
2018-Feb-21 01:58 019 6.1
2018-Feb-21 01:29 029 5.6
2018-Feb-21 00:58 014 5.6
2018-Feb-21 00:29 310 5.0
2018-Feb-20 23:59 299 7.8
2018-Feb-20 23:29 128 0 gusting 6 8.3
2018-Feb-20 22:59 100 8.3
2018-Feb-20 22:29 297 7.8
2018-Feb-20 21:59 311 7.2
2018-Feb-20 21:28 029 8.9
2018-Feb-20 20:58 267 8.9
2018-Feb-20 20:28 049 4 gusting 13 8.9
2018-Feb-20 19:58 013 8.9
2018-Feb-20 19:28 297 9.4
2018-Feb-20 18:59 033 8 gusting 13 10.0
2018-Feb-20 18:29 012 3 gusting 9 10.6
2018-Feb-20 17:59 354 3 gusting 15 10.6
2018-Feb-20 17:29 327 3 gusting 20 11.1
2018-Feb-20 16:59 340 4 gusting 15 11.1
2018-Feb-20 16:29 058 6 gusting 13 11.7
2018-Feb-20 15:59 034 6 gusting 17 12.8
2018-Feb-20 15:28 044 3 gusting 14 12.8
2018-Feb-20 14:58 019 5 gusting 13 12.2
2018-Feb-20 14:28 033 11 gusting 15 12.2
2018-Feb-20 13:58 304 8 gusting 19 12.8
2018-Feb-20 13:28 074 3 gusting 11 13.3
2018-Feb-20 12:58 346 3 gusting 10 13.3
2018-Feb-20 12:29 043 7 gusting 13 12.8
2018-Feb-20 11:59 028 7 gusting 13 12.2
2018-Feb-20 11:29 331 4 gusting 13 12.8
2018-Feb-20 10:59 047 5 gusting 13 12.8
2018-Feb-20 10:29 342 3 gusting 6 12.8
2018-Feb-20 09:59 008 12.2
2018-Feb-20 09:28 029 1 gusting 4 11.1
2018-Feb-20 08:58 045 0 gusting 3 10.0
2018-Feb-20 08:28 030 0 gusting 5 9.4
2018-Feb-20 07:58 035 8.9
2018-Feb-20 07:28 163 7.2
2018-Feb-20 06:59 349 0 gusting 6 7.8
2018-Feb-20 06:28 280 6.7